createdAt,value
2023-04-26T00:04:41.667Z,8.14
2023-04-26T00:09:35.308Z,8.19
2023-04-26T00:14:28.718Z,8.16
2023-04-26T00:19:22.110Z,8.20
2023-04-26T00:24:16.862Z,8.05
2023-04-26T00:29:10.149Z,7.90
2023-04-26T00:34:03.448Z,7.93
2023-04-26T00:38:56.798Z,8.06
2023-04-26T00:43:51.509Z,8.03
2023-04-26T00:48:45.424Z,7.90
2023-04-26T00:53:41.493Z,7.93
2023-04-26T00:58:35.021Z,7.78
2023-04-26T01:03:30.417Z,7.74
2023-04-26T01:08:25.555Z,7.57
2023-04-26T01:13:19.327Z,7.59
2023-04-26T01:18:12.681Z,7.47
2023-04-26T01:23:07.477Z,7.56
2023-04-26T01:28:00.758Z,7.64
2023-04-26T01:32:54.408Z,7.44
2023-04-26T01:37:47.694Z,7.35
2023-04-26T01:42:42.325Z,7.52
2023-04-26T01:47:35.733Z,7.59
2023-04-26T01:52:29.116Z,7.68
2023-04-26T01:57:22.392Z,7.63
2023-04-26T02:02:18.913Z,7.46
2023-04-26T02:07:12.258Z,7.35
2023-04-26T02:12:05.671Z,7.35
2023-04-26T02:16:58.959Z,7.42
2023-04-26T02:21:58.910Z,7.27
2023-04-26T02:26:53.088Z,7.18
2023-04-26T02:31:48.755Z,7.15
2023-04-26T02:36:42.128Z,7.16
2023-04-26T02:41:36.796Z,7.02
2023-04-26T02:46:30.146Z,7.20
2023-04-26T02:51:23.534Z,7.06
2023-04-26T02:56:17.029Z,7.03
2023-04-26T03:01:12.567Z,6.92
2023-04-26T03:06:06.548Z,6.71
2023-04-26T03:10:59.933Z,6.96
2023-04-26T03:15:53.712Z,7.03
2023-04-26T03:20:49.544Z,7.09
2023-04-26T03:25:42.826Z,7.13
2023-04-26T03:30:36.181Z,7.13
2023-04-26T03:35:29.488Z,7.15
2023-04-26T03:40:24.142Z,6.66
2023-04-26T03:45:17.705Z,6.58
2023-04-26T03:50:11.969Z,6.75
2023-04-26T03:55:06.013Z,6.63
2023-04-26T04:00:00.742Z,6.73
2023-04-26T04:04:54.179Z,6.88
2023-04-26T04:09:47.678Z,7.03
2023-04-26T04:14:41.033Z,7.06
2023-04-26T04:19:35.916Z,7.04
2023-04-26T04:24:29.812Z,6.91
2023-04-26T04:29:23.324Z,6.95
2023-04-26T04:34:17.281Z,6.92
2023-04-26T04:39:16.167Z,7.02
2023-04-26T04:44:09.558Z,7.08
2023-04-26T04:49:03.228Z,7.04
2023-04-26T04:53:56.877Z,6.92
2023-04-26T04:58:51.747Z,6.82
2023-04-26T05:03:45.381Z,6.96
2023-04-26T05:08:38.859Z,7.43
2023-04-26T05:13:32.114Z,7.24
2023-04-26T05:18:27.559Z,7.19
2023-04-26T05:23:20.891Z,7.14
2023-04-26T05:28:14.430Z,7.50
2023-04-26T05:33:07.829Z,7.56
2023-04-26T05:38:05.097Z,7.63
2023-04-26T05:42:58.368Z,7.88
2023-04-26T05:47:52.317Z,8.26
2023-04-26T05:52:45.725Z,8.21
2023-04-26T05:57:40.458Z,8.08
2023-04-26T06:02:33.884Z,8.24
2023-04-26T06:07:27.287Z,8.24
2023-04-26T06:12:22.488Z,8.14
2023-04-26T06:17:17.240Z,8.18
2023-04-26T06:22:10.545Z,8.22
2023-04-26T06:27:03.984Z,8.07
2023-04-26T06:31:57.286Z,8.27
2023-04-26T06:36:52.253Z,8.51
2023-04-26T06:41:45.695Z,8.76
2023-04-26T06:46:39.196Z,9.30
2023-04-26T06:51:32.811Z,9.56
2023-04-26T06:56:27.604Z,9.68
2023-04-26T07:01:20.931Z,9.82
2023-04-26T07:06:14.247Z,9.81
2023-04-26T07:11:11.676Z,10.00
2023-04-26T07:16:06.859Z,10.14
2023-04-26T07:21:00.179Z,10.07
2023-04-26T07:25:54.866Z,9.68
2023-04-26T07:30:49.023Z,9.26
2023-04-26T07:35:44.998Z,9.03
2023-04-26T07:40:38.341Z,8.97
2023-04-26T07:45:31.847Z,8.85
2023-04-26T07:50:26.141Z,9.01
2023-04-26T07:55:20.908Z,9.26
2023-04-26T08:00:16.817Z,9.39
2023-04-26T08:05:10.695Z,9.42
2023-04-26T08:10:04.783Z,10.28
2023-04-26T08:15:01.131Z,10.84
2023-04-26T08:19:54.727Z,11.16
2023-04-26T08:24:50.201Z,11.41
2023-04-26T08:29:43.807Z,11.73
2023-04-26T08:34:38.586Z,11.94
2023-04-26T08:39:31.914Z,11.91
2023-04-26T08:44:28.979Z,12.15
2023-04-26T08:49:34.680Z,12.18
2023-04-26T08:54:31.055Z,12.11
2023-04-26T08:59:25.199Z,11.82
2023-04-26T09:04:19.102Z,11.95
2023-04-26T09:09:18.743Z,11.84
2023-04-26T09:14:13.455Z,11.60
2023-04-26T09:19:06.816Z,11.64
2023-04-26T09:24:04.474Z,11.64
2023-04-26T09:34:19.179Z,12.07
2023-04-26T09:39:12.520Z,12.29
2023-04-26T09:44:06.168Z,12.79
2023-04-26T09:49:03.709Z,13.23
2023-04-26T09:53:58.491Z,13.57
2023-04-26T09:59:03.953Z,13.76
2023-04-26T10:03:58.431Z,13.97
2023-04-26T10:08:52.371Z,13.78
2023-04-26T10:13:47.331Z,13.56
2023-04-26T10:18:41.008Z,13.15
2023-04-26T10:23:34.867Z,12.71
2023-04-26T10:29:02.707Z,12.73
2023-04-26T10:34:20.035Z,12.89
2023-04-26T10:39:23.376Z,13.14
2023-04-26T10:44:41.385Z,13.44
2023-04-26T10:49:48.456Z,13.47
2023-04-26T10:55:08.007Z,13.48
2023-04-26T11:00:32.948Z,14.01
2023-04-26T11:05:55.599Z,13.65
2023-04-26T11:11:00.690Z,14.08
2023-04-26T11:16:04.912Z,14.53
2023-04-26T11:20:59.309Z,14.72
2023-04-26T11:25:55.029Z,14.38
2023-04-26T11:30:50.450Z,14.09
2023-04-26T11:35:46.404Z,14.20
2023-04-26T11:40:39.788Z,14.15
2023-04-26T11:45:35.946Z,14.04
2023-04-26T11:50:31.468Z,13.86
2023-04-26T11:55:33.250Z,13.96
2023-04-26T12:00:28.291Z,13.90
2023-04-26T12:05:30.699Z,14.14
2023-04-26T12:10:27.875Z,14.54
2023-04-26T12:15:25.781Z,14.57
2023-04-26T12:20:20.531Z,14.55
2023-04-26T12:25:13.851Z,14.28
2023-04-26T12:30:09.338Z,14.21
2023-04-26T12:35:04.326Z,14.22
2023-04-26T12:39:57.724Z,14.36
2023-04-26T12:44:50.999Z,14.44
2023-04-26T12:49:44.426Z,14.53
2023-04-26T12:54:39.381Z,14.46
2023-04-26T12:59:32.676Z,14.23
2023-04-26T13:04:26.255Z,14.33
2023-04-26T13:09:20.098Z,14.29
2023-04-26T13:14:14.846Z,14.10
2023-04-26T13:19:08.298Z,14.21
2023-04-26T13:24:01.649Z,14.33
2023-04-26T13:28:55.074Z,14.34
2023-04-26T13:33:50.944Z,14.21
2023-04-26T13:38:45.240Z,14.35
2023-04-26T13:43:38.622Z,14.39
2023-04-26T13:48:32.011Z,14.44
2023-04-26T13:53:27.925Z,14.36
2023-04-26T13:58:21.207Z,14.37
2023-04-26T14:03:14.622Z,14.32
2023-04-26T14:08:08.419Z,14.34
2023-04-26T14:13:03.069Z,14.49
2023-04-26T14:17:56.370Z,14.62
2023-04-26T14:22:50.286Z,14.50
2023-04-26T14:27:43.760Z,14.40
2023-04-26T14:32:38.965Z,14.46
2023-04-26T14:37:32.384Z,14.42
2023-04-26T14:42:25.852Z,14.45
2023-04-26T14:47:19.195Z,14.49
2023-04-26T14:52:13.924Z,14.49
2023-04-26T14:57:07.458Z,14.43
2023-04-26T15:02:00.843Z,14.52
2023-04-26T15:06:54.328Z,14.38
2023-04-26T15:11:49.034Z,14.32
2023-04-26T15:16:42.439Z,14.41
2023-04-26T15:21:35.844Z,14.46
2023-04-26T15:26:31.039Z,14.39
2023-04-26T15:31:25.877Z,14.31
2023-04-26T15:36:20.536Z,14.12
2023-04-26T15:41:14.014Z,14.15
2023-04-26T15:46:07.413Z,14.22
2023-04-26T15:51:06.707Z,14.16
2023-04-26T15:56:00.121Z,14.07
2023-04-26T16:00:53.793Z,14.03
2023-04-26T16:05:47.144Z,14.09
2023-04-26T16:10:42.231Z,14.00
2023-04-26T16:15:35.603Z,13.97
2023-04-26T16:20:28.961Z,13.95
2023-04-26T16:25:22.509Z,13.88
2023-04-26T16:30:17.639Z,13.86
2023-04-26T16:35:11.505Z,13.87
2023-04-26T16:40:05.998Z,13.83
2023-04-26T16:44:59.724Z,13.82
2023-04-26T16:49:54.488Z,13.76
2023-04-26T16:54:47.841Z,13.75
2023-04-26T16:59:41.257Z,13.82
2023-04-26T17:04:35.467Z,13.69
2023-04-26T17:09:30.348Z,13.59
2023-04-26T17:14:23.721Z,13.54
2023-04-26T17:19:17.181Z,13.49
2023-04-26T17:24:10.666Z,13.43
2023-04-26T17:29:05.459Z,13.39
2023-04-26T17:33:58.814Z,13.21
2023-04-26T17:38:52.113Z,13.18
2023-04-26T17:43:45.693Z,13.10
2023-04-26T17:48:40.572Z,13.07
2023-04-26T17:53:34.380Z,13.14
2023-04-26T17:58:27.838Z,13.02
2023-04-26T18:03:21.617Z,12.97
2023-04-26T18:08:16.849Z,12.89
2023-04-26T18:13:11.200Z,12.93
2023-04-26T18:18:08.048Z,12.88
2023-04-26T18:23:01.496Z,12.81
2023-04-26T18:27:56.325Z,12.79
2023-04-26T18:32:52.993Z,12.74
2023-04-26T18:37:46.538Z,12.51
2023-04-26T18:42:39.958Z,12.36
2023-04-26T18:47:34.762Z,12.33
2023-04-26T18:52:28.151Z,12.34
2023-04-26T18:57:22.740Z,12.25
2023-04-26T19:02:16.141Z,12.23
2023-04-26T19:07:10.912Z,12.21
2023-04-26T19:12:05.957Z,12.14
2023-04-26T19:16:59.918Z,12.03
2023-04-26T19:21:53.426Z,11.94
2023-04-26T19:26:48.135Z,11.92
2023-04-26T19:31:41.556Z,11.93
2023-04-26T19:36:36.457Z,11.98
2023-04-26T19:41:29.861Z,12.02
2023-04-26T19:46:24.640Z,11.95
2023-04-26T19:51:19.452Z,11.93
2023-04-26T19:56:12.837Z,11.95
2023-04-26T20:01:06.717Z,11.81
2023-04-26T20:06:01.659Z,11.64
2023-04-26T20:10:55.005Z,11.73
2023-04-26T20:15:48.298Z,11.78
2023-04-26T20:20:41.668Z,11.86
2023-04-26T20:25:36.394Z,11.70
2023-04-26T20:30:31.282Z,11.60
2023-04-26T20:35:24.616Z,11.65
2023-04-26T20:40:18.455Z,11.59
2023-04-26T20:45:14.038Z,11.42
2023-04-26T20:50:09.194Z,11.46
2023-04-26T20:55:02.593Z,11.49
2023-04-26T20:59:56.026Z,11.45
2023-04-26T21:04:50.864Z,11.51
2023-04-26T21:09:44.337Z,11.58
2023-04-26T21:14:37.919Z,11.75
2023-04-26T21:19:31.366Z,11.68
2023-04-26T21:24:26.104Z,11.54
2023-04-26T21:29:19.383Z,11.36
2023-04-26T21:34:12.763Z,11.42
2023-04-26T21:39:06.210Z,11.37
2023-04-26T21:44:01.064Z,11.40
2023-04-26T21:48:54.816Z,11.42
2023-04-26T21:53:48.176Z,11.43
2023-04-26T21:58:41.596Z,11.38
2023-04-26T22:03:36.485Z,11.35
2023-04-26T22:08:30.078Z,11.18
2023-04-26T22:13:23.970Z,11.08
2023-04-26T22:18:17.571Z,11.20
2023-04-26T22:23:13.417Z,11.19
2023-04-26T22:28:07.060Z,11.17
2023-04-26T22:33:00.887Z,11.21
2023-04-26T22:37:55.765Z,11.11
2023-04-26T22:42:50.475Z,11.16
2023-04-26T22:47:44.900Z,11.11
2023-04-26T22:52:39.005Z,11.05
2023-04-26T22:57:32.431Z,11.07
2023-04-26T23:02:27.246Z,11.02
2023-04-26T23:07:20.849Z,10.91
2023-04-26T23:12:20.024Z,10.98
2023-04-26T23:17:13.980Z,10.88
2023-04-26T23:22:08.737Z,10.86
2023-04-26T23:27:02.783Z,10.88
2023-04-26T23:31:56.395Z,10.76
2023-04-26T23:36:49.909Z,10.54
2023-04-26T23:41:44.755Z,10.71
2023-04-26T23:46:38.237Z,10.77
2023-04-26T23:51:32.387Z,10.85
2023-04-26T23:56:25.832Z,10.80
